createdAt,value
2018-09-15T00:00:28.877Z,0.00
2018-09-15T00:01:28.875Z,0.00
2018-09-15T00:02:28.875Z,0.00
2018-09-15T00:03:28.870Z,0.00
2018-09-15T00:04:28.872Z,0.00
2018-09-15T00:05:28.875Z,0.00
2018-09-15T00:06:28.874Z,0.00
2018-09-15T00:07:28.868Z,0.00
2018-09-15T00:08:28.869Z,0.00
2018-09-15T00:09:28.872Z,0.00
2018-09-15T00:10:28.867Z,0.00
2018-09-15T00:11:28.869Z,0.00
2018-09-15T00:12:28.865Z,0.00
2018-09-15T00:13:28.864Z,0.00
2018-09-15T00:14:28.864Z,0.00
2018-09-15T00:15:28.860Z,0.00
2018-09-15T00:16:28.860Z,0.00
2018-09-15T00:17:28.859Z,0.00
2018-09-15T00:18:28.859Z,0.00
2018-09-15T00:19:28.978Z,0.00
2018-09-15T00:20:28.863Z,0.00
2018-09-15T00:21:28.854Z,0.00
2018-09-15T00:22:28.852Z,0.00
2018-09-15T00:23:28.852Z,0.00
2018-09-15T00:24:28.856Z,0.00
2018-09-15T00:25:28.850Z,0.00
2018-09-15T00:26:28.847Z,0.00
2018-09-15T00:27:28.852Z,0.00
2018-09-15T00:28:28.848Z,0.00
2018-09-15T00:29:28.843Z,0.00
2018-09-15T00:30:28.846Z,0.00
2018-09-15T00:31:28.843Z,0.00
2018-09-15T00:32:28.840Z,0.00
2018-09-15T00:33:28.839Z,0.00
2018-09-15T00:34:28.846Z,0.00
2018-09-15T00:35:28.840Z,0.00
2018-09-15T00:36:28.838Z,0.00
2018-09-15T00:37:28.837Z,0.00
2018-09-15T00:38:28.833Z,0.00
2018-09-15T00:39:28.835Z,0.00
2018-09-15T00:40:28.831Z,0.00
2018-09-15T00:41:28.830Z,0.00
2018-09-15T00:42:28.827Z,0.00
2018-09-15T00:43:28.829Z,0.00
2018-09-15T00:44:28.824Z,0.00
2018-09-15T00:45:28.824Z,0.00
2018-09-15T00:46:28.822Z,0.00
2018-09-15T00:47:28.825Z,0.00
2018-09-15T00:48:28.822Z,0.00
2018-09-15T00:49:28.817Z,0.00
2018-09-15T00:50:28.816Z,0.00
2018-09-15T00:51:28.813Z,0.00
2018-09-15T00:52:28.811Z,0.00
2018-09-15T00:53:28.808Z,0.00
2018-09-15T00:54:28.810Z,0.00
2018-09-15T00:55:28.806Z,0.00
2018-09-15T00:56:28.803Z,0.00
2018-09-15T00:57:28.806Z,0.00
2018-09-15T00:58:28.801Z,0.00
2018-09-15T00:59:28.799Z,0.00
2018-09-15T01:00:28.800Z,0.00
2018-09-15T01:01:28.797Z,0.00
2018-09-15T01:02:28.797Z,0.00
2018-09-15T01:03:28.792Z,0.00
2018-09-15T01:04:28.791Z,0.00
2018-09-15T01:05:28.794Z,0.00
2018-09-15T01:06:28.786Z,0.00
2018-09-15T01:07:28.785Z,0.00
2018-09-15T01:08:28.784Z,0.00
2018-09-15T01:09:28.781Z,0.00
2018-09-15T01:10:28.780Z,0.00
2018-09-15T01:11:28.778Z,0.00
2018-09-15T01:12:28.776Z,0.00
2018-09-15T01:13:28.774Z,0.00
2018-09-15T01:14:28.814Z,0.00
2018-09-15T01:15:28.769Z,0.00
2018-09-15T01:16:28.768Z,0.00
2018-09-15T01:17:28.763Z,0.00
2018-09-15T01:18:28.764Z,0.00
2018-09-15T01:19:28.765Z,0.00
2018-09-15T01:20:28.764Z,0.00
2018-09-15T01:21:28.760Z,0.00
2018-09-15T01:22:28.757Z,0.00
2018-09-15T01:23:28.754Z,0.00
2018-09-15T01:24:28.757Z,0.00
2018-09-15T01:25:28.751Z,0.00
2018-09-15T01:26:28.751Z,0.00
2018-09-15T01:27:28.746Z,0.00
2018-09-15T01:28:28.739Z,0.00
2018-09-15T01:29:28.744Z,0.00
2018-09-15T01:30:29.304Z,0.00
2018-09-15T01:31:28.739Z,0.00
2018-09-15T01:32:28.737Z,0.00
2018-09-15T01:33:28.734Z,0.00
2018-09-15T01:34:28.733Z,0.00
2018-09-15T01:35:28.729Z,0.00
2018-09-15T01:36:28.732Z,0.00
2018-09-15T01:37:28.727Z,0.00
2018-09-15T01:38:28.730Z,0.00
2018-09-15T01:39:28.722Z,0.00
2018-09-15T01:40:28.719Z,0.00
2018-09-15T01:41:28.718Z,0.00
2018-09-15T01:42:28.716Z,0.00
2018-09-15T01:43:28.716Z,0.00
2018-09-15T01:44:28.715Z,0.00
2018-09-15T01:45:28.710Z,0.00
2018-09-15T01:46:28.710Z,0.00
2018-09-15T01:47:28.705Z,0.00
2018-09-15T01:48:28.704Z,0.00
2018-09-15T01:49:28.701Z,0.00
2018-09-15T01:50:28.707Z,0.00
2018-09-15T01:51:28.699Z,0.00
2018-09-15T01:52:28.695Z,0.00
2018-09-15T01:53:28.694Z,0.00
2018-09-15T01:54:28.691Z,0.00
2018-09-15T01:55:28.684Z,0.00
2018-09-15T01:56:28.687Z,0.00
2018-09-15T01:57:28.707Z,0.00
2018-09-15T01:58:28.683Z,0.00
2018-09-15T01:59:28.681Z,0.00
2018-09-15T02:00:28.679Z,0.00
2018-09-15T02:01:28.675Z,0.00
2018-09-15T02:02:28.675Z,0.00
2018-09-15T02:03:29.387Z,0.00
2018-09-15T02:04:28.670Z,0.00
2018-09-15T02:05:28.672Z,0.00
2018-09-15T02:06:28.665Z,0.00
2018-09-15T02:07:28.662Z,0.00
2018-09-15T02:08:28.700Z,0.00
2018-09-15T02:09:28.660Z,0.00
2018-09-15T02:10:28.657Z,0.00
2018-09-15T02:11:28.653Z,0.00
2018-09-15T02:12:28.656Z,0.00
2018-09-15T02:13:28.650Z,0.00
2018-09-15T02:14:28.646Z,0.00
2018-09-15T02:15:28.646Z,0.00
2018-09-15T02:16:28.642Z,0.00
2018-09-15T02:17:28.640Z,0.00
2018-09-15T02:18:28.639Z,0.00
2018-09-15T02:19:28.639Z,0.00
2018-09-15T02:20:28.633Z,0.00
2018-09-15T02:21:28.632Z,0.00
2018-09-15T02:22:28.641Z,0.00
2018-09-15T02:23:28.627Z,0.00
2018-09-15T02:24:28.623Z,0.00
2018-09-15T02:25:28.622Z,0.00
2018-09-15T02:26:28.619Z,0.00
2018-09-15T02:27:28.615Z,0.00
2018-09-15T02:28:28.612Z,0.00
2018-09-15T02:29:28.614Z,0.00
2018-09-15T02:30:28.611Z,0.00
2018-09-15T02:31:28.608Z,0.00
2018-09-15T02:32:28.604Z,0.00
2018-09-15T02:33:28.602Z,0.00
2018-09-15T02:34:28.600Z,0.00
2018-09-15T02:35:28.597Z,0.00
2018-09-15T02:36:28.601Z,0.00
2018-09-15T02:37:28.592Z,0.00
2018-09-15T02:38:28.591Z,0.00
2018-09-15T02:39:28.585Z,0.00
2018-09-15T02:40:28.584Z,0.00
2018-09-15T02:41:28.584Z,0.00
2018-09-15T02:42:28.577Z,0.00
2018-09-15T02:43:28.573Z,0.00
2018-09-15T02:44:28.578Z,0.00
2018-09-15T02:45:28.570Z,0.00
2018-09-15T02:46:28.568Z,0.00
2018-09-15T02:47:28.568Z,0.00
2018-09-15T02:48:28.564Z,0.00
2018-09-15T02:49:28.562Z,0.00
2018-09-15T02:50:28.556Z,0.00
2018-09-15T02:51:28.556Z,0.00
2018-09-15T02:52:28.555Z,0.00
2018-09-15T02:53:28.549Z,0.00
2018-09-15T02:54:28.549Z,0.00
2018-09-15T02:55:28.544Z,0.00
2018-09-15T02:56:28.541Z,0.00
2018-09-15T02:57:28.538Z,0.00
2018-09-15T02:58:28.538Z,0.00
2018-09-15T02:59:28.530Z,0.00
2018-09-15T03:00:28.532Z,0.00
2018-09-15T03:01:28.528Z,0.00
2018-09-15T03:02:28.523Z,0.00
2018-09-15T03:03:28.522Z,0.00
2018-09-15T03:04:28.523Z,0.00
2018-09-15T03:05:28.518Z,0.00
2018-09-15T03:06:28.514Z,0.00
2018-09-15T03:07:28.512Z,0.00
2018-09-15T03:08:28.508Z,0.00
2018-09-15T03:09:28.504Z,0.00
2018-09-15T03:10:28.502Z,0.00
2018-09-15T03:11:28.498Z,0.00
2018-09-15T03:12:28.494Z,0.00
2018-09-15T03:13:28.495Z,0.00
2018-09-15T03:14:28.491Z,0.00
2018-09-15T03:15:28.488Z,0.00
2018-09-15T03:16:28.489Z,0.00
2018-09-15T03:17:28.481Z,0.00
2018-09-15T03:18:28.481Z,0.00
2018-09-15T03:19:28.475Z,0.00
2018-09-15T03:20:28.472Z,0.00
2018-09-15T03:21:28.469Z,0.00
2018-09-15T03:22:28.478Z,0.00
2018-09-15T03:23:28.462Z,0.00
2018-09-15T03:24:28.460Z,0.00
2018-09-15T03:25:28.454Z,0.00
2018-09-15T03:26:28.455Z,0.00
2018-09-15T03:27:28.452Z,0.00
2018-09-15T03:28:28.455Z,0.00
2018-09-15T03:29:28.451Z,0.00
2018-09-15T03:30:28.451Z,0.00
2018-09-15T03:31:28.437Z,0.00
2018-09-15T03:32:28.438Z,0.00
2018-09-15T03:33:28.430Z,0.00
2018-09-15T03:34:28.434Z,0.00
2018-09-15T03:35:28.426Z,0.00
2018-09-15T03:36:28.423Z,0.00
2018-09-15T03:37:28.420Z,0.00
2018-09-15T03:38:28.419Z,0.00
2018-09-15T03:39:28.415Z,0.00
2018-09-15T03:40:28.412Z,0.00
2018-09-15T03:41:28.488Z,0.00
2018-09-15T03:42:28.404Z,0.00
2018-09-15T03:43:28.403Z,0.00
2018-09-15T03:44:28.398Z,0.00
2018-09-15T03:45:28.395Z,0.00
2018-09-15T03:46:28.389Z,0.00
2018-09-15T03:47:28.388Z,0.00
2018-09-15T03:48:28.387Z,0.00
2018-09-15T03:49:28.381Z,0.00
2018-09-15T03:50:28.380Z,0.00
2018-09-15T03:51:28.375Z,0.00
2018-09-15T03:52:28.377Z,0.00
2018-09-15T03:53:28.381Z,0.00
2018-09-15T03:54:28.365Z,0.00
2018-09-15T03:55:28.369Z,0.00
2018-09-15T03:56:28.358Z,0.00
2018-09-15T03:57:28.358Z,0.00
2018-09-15T03:58:28.366Z,0.00
2018-09-15T03:59:28.348Z,0.00
2018-09-15T04:00:28.416Z,0.00
2018-09-15T04:01:28.346Z,0.00
2018-09-15T04:02:28.339Z,0.00
2018-09-15T04:03:28.335Z,0.00
2018-09-15T04:04:28.332Z,0.00
2018-09-15T04:05:28.330Z,0.00
2018-09-15T04:06:28.327Z,0.00
2018-09-15T04:07:28.325Z,0.00
2018-09-15T04:08:28.327Z,0.00
2018-09-15T04:09:28.316Z,0.00
2018-09-15T04:10:28.316Z,0.00
2018-09-15T04:11:28.310Z,0.00
2018-09-15T04:12:28.305Z,0.00
2018-09-15T04:13:28.302Z,0.00
2018-09-15T04:14:28.296Z,0.00
2018-09-15T04:15:28.299Z,0.00
2018-09-15T04:16:28.292Z,0.00
2018-09-15T04:17:28.288Z,0.00
2018-09-15T04:18:28.290Z,0.00
2018-09-15T04:19:28.284Z,0.00
2018-09-15T04:20:28.283Z,0.00
2018-09-15T04:21:28.278Z,0.00
2018-09-15T04:22:28.272Z,0.00
2018-09-15T04:23:28.269Z,0.00
2018-09-15T04:24:28.276Z,0.00
2018-09-15T04:25:28.261Z,0.00
2018-09-15T04:26:28.266Z,0.00
2018-09-15T04:27:28.259Z,0.00
2018-09-15T04:28:28.298Z,0.00
2018-09-15T04:29:28.251Z,0.00
2018-09-15T04:30:28.245Z,0.00
2018-09-15T04:31:28.243Z,0.00
2018-09-15T04:32:28.239Z,0.00
2018-09-15T04:33:28.236Z,0.00
2018-09-15T04:34:28.238Z,0.00
2018-09-15T04:35:28.229Z,0.00
2018-09-15T04:36:28.226Z,0.00
2018-09-15T04:37:28.227Z,0.00
2018-09-15T04:38:28.224Z,0.00
2018-09-15T04:39:28.218Z,0.00
2018-09-15T04:40:28.214Z,0.00
2018-09-15T04:41:28.210Z,0.00
2018-09-15T04:42:28.205Z,0.00
2018-09-15T04:43:28.203Z,0.00
2018-09-15T04:44:28.198Z,0.00
2018-09-15T04:45:28.196Z,5.63
2018-09-15T04:46:28.195Z,5.63
2018-09-15T04:47:28.192Z,5.63
2018-09-15T04:48:28.187Z,5.63
2018-09-15T04:49:28.186Z,5.63
2018-09-15T04:50:28.183Z,5.63
2018-09-15T04:51:28.178Z,11.25
2018-09-15T04:52:28.227Z,11.25
2018-09-15T04:53:28.174Z,11.25
2018-09-15T04:54:28.170Z,11.25
2018-09-15T04:55:28.167Z,11.25
2018-09-15T04:56:28.165Z,16.88
2018-09-15T04:57:28.160Z,16.88
2018-09-15T04:58:28.156Z,16.88
2018-09-15T04:59:28.153Z,16.88
2018-09-15T05:00:28.151Z,22.50
2018-09-15T05:01:28.148Z,22.50
2018-09-15T05:02:28.149Z,22.50
2018-09-15T05:03:28.141Z,22.50
2018-09-15T05:04:28.140Z,28.13
2018-09-15T05:05:28.135Z,28.13
2018-09-15T05:06:28.145Z,33.75
2018-09-15T05:07:28.134Z,33.75
2018-09-15T05:08:28.128Z,33.75
2018-09-15T05:09:28.123Z,39.38
2018-09-15T05:10:28.119Z,39.38
2018-09-15T05:11:28.117Z,39.38
2018-09-15T05:12:28.128Z,45.00
2018-09-15T05:13:28.112Z,45.00
2018-09-15T05:14:28.108Z,45.00
2018-09-15T05:15:28.107Z,50.63
2018-09-15T05:16:28.102Z,50.63
2018-09-15T05:17:28.102Z,50.63
2018-09-15T05:18:28.099Z,56.25
2018-09-15T05:19:28.096Z,56.25
2018-09-15T05:20:28.090Z,61.88
2018-09-15T05:21:28.087Z,67.50
2018-09-15T05:22:28.084Z,78.75
2018-09-15T05:23:28.083Z,78.75
2018-09-15T05:24:28.078Z,84.38
2018-09-15T05:25:28.078Z,90.00
2018-09-15T05:26:28.072Z,95.63
2018-09-15T05:27:28.069Z,95.63
2018-09-15T05:28:28.066Z,95.63
2018-09-15T05:29:28.070Z,95.63
2018-09-15T05:30:28.060Z,95.63
2018-09-15T05:31:28.994Z,101.25
2018-09-15T05:32:28.053Z,95.63
2018-09-15T05:33:28.053Z,95.63
2018-09-15T05:34:28.052Z,95.63
2018-09-15T05:35:28.044Z,95.63
2018-09-15T05:36:28.042Z,95.63
2018-09-15T05:37:28.040Z,129.38
2018-09-15T05:38:28.037Z,180.00
2018-09-15T05:39:28.034Z,191.25
2018-09-15T05:40:28.033Z,191.25
2018-09-15T05:41:28.031Z,180.00
2018-09-15T05:42:28.027Z,112.50
2018-09-15T05:43:28.025Z,180.00
2018-09-15T05:44:28.022Z,163.13
2018-09-15T05:45:28.023Z,118.13
2018-09-15T05:46:28.017Z,78.75
2018-09-15T05:47:28.016Z,84.38
2018-09-15T05:48:28.012Z,90.00
2018-09-15T05:49:28.016Z,84.38
2018-09-15T05:50:28.006Z,84.38
2018-09-15T05:51:28.005Z,84.38
2018-09-15T05:52:28.005Z,84.38
2018-09-15T05:53:28.001Z,78.75
2018-09-15T05:54:27.998Z,73.13
2018-09-15T05:55:27.997Z,67.50
2018-09-15T05:56:27.991Z,61.88
2018-09-15T05:57:27.987Z,50.63
2018-09-15T05:58:27.990Z,45.00
2018-09-15T05:59:27.985Z,39.38
2018-09-15T06:00:27.998Z,39.38
2018-09-15T06:01:27.994Z,39.38
2018-09-15T06:02:27.978Z,45.00
2018-09-15T06:03:27.974Z,50.63
2018-09-15T06:04:27.979Z,56.25
2018-09-15T06:05:28.879Z,61.88
2018-09-15T06:06:27.971Z,67.50
2018-09-15T06:07:27.971Z,73.13
2018-09-15T06:08:27.963Z,78.75
2018-09-15T06:09:27.962Z,84.38
2018-09-15T06:10:27.959Z,90.00
2018-09-15T06:11:27.952Z,101.25
2018-09-15T06:12:27.954Z,101.25
2018-09-15T06:13:27.961Z,106.88
2018-09-15T06:14:27.951Z,123.75
2018-09-15T06:15:27.953Z,129.38
2018-09-15T06:16:27.947Z,140.63
2018-09-15T06:17:27.948Z,146.25
2018-09-15T06:18:27.942Z,151.88
2018-09-15T06:19:27.939Z,151.88
2018-09-15T06:20:27.936Z,140.63
2018-09-15T06:21:27.939Z,135.00
2018-09-15T06:22:27.936Z,140.63
2018-09-15T06:23:27.929Z,157.50
2018-09-15T06:24:27.925Z,168.75
2018-09-15T06:25:27.927Z,180.00
2018-09-15T06:26:27.922Z,191.25
2018-09-15T06:27:27.920Z,225.00
2018-09-15T06:28:27.920Z,393.75
2018-09-15T06:29:27.917Z,534.38
2018-09-15T06:30:27.915Z,585.00
2018-09-15T06:31:27.915Z,607.50
2018-09-15T06:32:27.910Z,607.50
2018-09-15T06:33:27.908Z,613.13
2018-09-15T06:34:27.906Z,618.75
2018-09-15T06:35:27.914Z,635.63
2018-09-15T06:36:27.905Z,630.00
2018-09-15T06:37:27.902Z,663.75
2018-09-15T06:38:27.902Z,714.38
2018-09-15T06:39:27.978Z,753.75
2018-09-15T06:40:27.899Z,725.63
2018-09-15T06:41:27.900Z,731.25
2018-09-15T06:42:27.913Z,765.00
2018-09-15T06:43:27.899Z,770.63
2018-09-15T06:44:27.895Z,776.25
2018-09-15T06:45:27.971Z,765.00
2018-09-15T06:46:27.898Z,770.63
2018-09-15T06:47:27.895Z,821.25
2018-09-15T06:48:27.894Z,855.00
2018-09-15T06:49:27.897Z,855.00
2018-09-15T06:50:27.897Z,871.88
2018-09-15T06:51:27.937Z,916.88
2018-09-15T06:52:27.896Z,984.38
2018-09-15T06:53:27.903Z,1006.88
2018-09-15T06:54:27.903Z,1006.88
2018-09-15T06:55:27.898Z,1035.00
2018-09-15T06:56:27.899Z,1091.25
2018-09-15T06:57:27.900Z,1153.13
2018-09-15T06:58:27.902Z,1164.38
2018-09-15T06:59:27.896Z,1108.13
2018-09-15T07:00:27.900Z,1029.38
2018-09-15T07:01:27.901Z,1029.38
2018-09-15T07:02:27.904Z,1080.00
2018-09-15T07:03:27.904Z,1153.13
2018-09-15T07:04:27.906Z,1198.13
2018-09-15T07:05:27.904Z,1186.88
2018-09-15T07:06:27.908Z,1181.25
2018-09-15T07:07:27.907Z,950.63
2018-09-15T07:08:27.912Z,950.63
2018-09-15T07:09:27.912Z,725.63
2018-09-15T07:10:27.914Z,506.25
2018-09-15T07:11:27.915Z,348.75
2018-09-15T07:12:27.914Z,292.50
2018-09-15T07:13:27.916Z,326.25
2018-09-15T07:14:27.916Z,466.88
2018-09-15T07:15:27.917Z,450.00
2018-09-15T07:16:27.930Z,253.13
2018-09-15T07:17:27.919Z,253.13
2018-09-15T07:18:27.921Z,343.13
2018-09-15T07:19:27.919Z,337.50
2018-09-15T07:20:27.926Z,258.75
2018-09-15T07:21:27.926Z,225.00
2018-09-15T07:22:27.918Z,208.13
2018-09-15T07:23:27.921Z,202.50
2018-09-15T07:24:27.923Z,202.50
2018-09-15T07:25:27.923Z,202.50
2018-09-15T07:26:27.928Z,196.88
2018-09-15T07:27:27.923Z,196.88
2018-09-15T07:28:27.924Z,196.88
2018-09-15T07:29:27.924Z,191.25
2018-09-15T07:30:27.924Z,191.25
2018-09-15T07:31:27.937Z,196.88
2018-09-15T07:32:27.924Z,191.25
2018-09-15T07:33:27.921Z,191.25
2018-09-15T07:34:27.922Z,191.25
2018-09-15T07:35:27.927Z,191.25
2018-09-15T07:36:27.930Z,191.25
2018-09-15T07:37:27.978Z,191.25
2018-09-15T07:38:27.924Z,185.63
2018-09-15T07:39:27.920Z,185.63
2018-09-15T07:40:27.921Z,185.63
2018-09-15T07:41:27.922Z,185.63
2018-09-15T07:42:27.921Z,180.00
2018-09-15T07:43:27.919Z,174.38
2018-09-15T07:44:27.921Z,174.38
2018-09-15T07:45:27.919Z,174.38
2018-09-15T07:46:27.920Z,168.75
2018-09-15T07:47:27.918Z,174.38
2018-09-15T07:48:27.916Z,174.38
2018-09-15T07:49:27.916Z,174.38
2018-09-15T07:50:27.919Z,168.75
2018-09-15T07:51:28.519Z,168.75
2018-09-15T07:52:27.911Z,174.38
2018-09-15T07:53:27.912Z,174.38
2018-09-15T07:54:27.912Z,174.38
2018-09-15T07:55:27.912Z,174.38
2018-09-15T07:56:27.910Z,168.75
2018-09-15T07:57:27.941Z,168.75
2018-09-15T07:58:28.412Z,168.75
2018-09-15T07:59:27.907Z,174.38
2018-09-15T08:00:27.907Z,174.38
2018-09-15T08:01:27.906Z,174.38
2018-09-15T08:02:27.906Z,180.00
2018-09-15T08:03:27.904Z,174.38
2018-09-15T08:04:27.904Z,174.38
2018-09-15T08:05:27.903Z,180.00
2018-09-15T08:06:27.902Z,180.00
2018-09-15T08:07:27.900Z,180.00
2018-09-15T08:08:27.902Z,174.38
2018-09-15T08:09:27.900Z,174.38
2018-09-15T08:10:27.900Z,180.00
2018-09-15T08:11:28.487Z,180.00
2018-09-15T08:12:27.927Z,185.63
2018-09-15T08:13:27.897Z,185.63
2018-09-15T08:14:27.898Z,185.63
2018-09-15T08:15:27.894Z,185.63
2018-09-15T08:16:27.893Z,174.38
2018-09-15T08:17:27.897Z,180.00
2018-09-15T08:18:27.889Z,180.00
2018-09-15T08:19:27.894Z,174.38
2018-09-15T08:20:27.892Z,180.00
2018-09-15T08:21:27.891Z,174.38
2018-09-15T08:22:27.892Z,168.75
2018-09-15T08:23:27.894Z,168.75
2018-09-15T08:24:27.889Z,180.00
2018-09-15T08:25:27.888Z,185.63
2018-09-15T08:26:27.980Z,185.63
2018-09-15T08:27:27.902Z,196.88
2018-09-15T08:28:27.884Z,185.63
2018-09-15T08:29:27.882Z,174.38
2018-09-15T08:30:27.885Z,180.00
2018-09-15T08:31:27.881Z,180.00
2018-09-15T08:32:27.883Z,185.63
2018-09-15T08:33:27.881Z,185.63
2018-09-15T08:34:27.888Z,185.63
2018-09-15T08:35:27.879Z,208.13
2018-09-15T08:36:28.422Z,253.13
2018-09-15T08:37:27.885Z,253.13
2018-09-15T08:38:27.883Z,309.38
2018-09-15T08:39:27.876Z,286.88
2018-09-15T08:40:27.876Z,264.38
2018-09-15T08:41:27.922Z,225.00
2018-09-15T08:42:27.875Z,213.75
2018-09-15T08:43:27.874Z,298.13
2018-09-15T08:44:27.873Z,258.75
2018-09-15T08:45:27.872Z,225.00
2018-09-15T08:46:27.873Z,219.38
2018-09-15T08:47:27.869Z,219.38
2018-09-15T08:48:27.869Z,219.38
2018-09-15T08:49:27.870Z,219.38
2018-09-15T08:50:27.873Z,208.13
2018-09-15T08:51:27.867Z,202.50
2018-09-15T08:52:27.867Z,196.88
2018-09-15T08:53:27.868Z,196.88
2018-09-15T08:54:27.869Z,191.25
2018-09-15T08:55:28.430Z,191.25
2018-09-15T08:56:27.866Z,185.63
2018-09-15T08:57:27.863Z,180.00
2018-09-15T08:58:27.865Z,174.38
2018-09-15T08:59:27.861Z,180.00
2018-09-15T09:00:27.861Z,185.63
2018-09-15T09:01:27.861Z,202.50
2018-09-15T09:02:27.863Z,208.13
2018-09-15T09:03:27.864Z,236.25
2018-09-15T09:04:27.859Z,236.25
2018-09-15T09:05:27.859Z,208.13
2018-09-15T09:06:27.858Z,196.88
2018-09-15T09:07:27.858Z,191.25
2018-09-15T09:08:27.856Z,225.00
2018-09-15T09:09:27.855Z,275.63
2018-09-15T09:10:27.853Z,236.25
2018-09-15T09:11:27.859Z,213.75
2018-09-15T09:12:27.854Z,196.88
2018-09-15T09:13:27.853Z,191.25
2018-09-15T09:14:27.854Z,185.63
2018-09-15T09:15:27.852Z,180.00
2018-09-15T09:16:28.436Z,191.25
2018-09-15T09:17:27.852Z,202.50
2018-09-15T09:18:27.852Z,225.00
2018-09-15T09:19:27.895Z,202.50
2018-09-15T09:20:27.851Z,208.13
2018-09-15T09:21:27.852Z,208.13
2018-09-15T09:22:27.852Z,241.88
2018-09-15T09:23:27.861Z,236.25
2018-09-15T09:24:27.851Z,236.25
2018-09-15T09:25:27.853Z,236.25
2018-09-15T09:26:27.923Z,213.75
2018-09-15T09:27:27.850Z,202.50
2018-09-15T09:28:28.438Z,196.88
2018-09-15T09:29:27.850Z,191.25
2018-09-15T09:30:28.441Z,185.63
2018-09-15T09:31:27.847Z,191.25
2018-09-15T09:32:27.942Z,219.38
2018-09-15T09:33:27.854Z,213.75
2018-09-15T09:34:27.849Z,202.50
2018-09-15T09:35:27.849Z,225.00
2018-09-15T09:36:27.848Z,281.25
2018-09-15T09:37:27.846Z,264.38
2018-09-15T09:38:27.953Z,208.13
2018-09-15T09:39:27.849Z,225.00
2018-09-15T09:40:27.851Z,275.63
2018-09-15T09:41:27.913Z,247.50
2018-09-15T09:42:27.850Z,202.50
2018-09-15T09:43:27.853Z,202.50
2018-09-15T09:44:27.852Z,196.88
2018-09-15T09:45:27.849Z,196.88
2018-09-15T09:46:27.854Z,191.25
2018-09-15T09:47:27.852Z,196.88
2018-09-15T09:48:27.850Z,219.38
2018-09-15T09:49:27.857Z,270.00
2018-09-15T09:50:27.854Z,303.75
2018-09-15T09:51:27.851Z,275.63
2018-09-15T09:52:27.851Z,270.00
2018-09-15T09:53:27.851Z,270.00
2018-09-15T09:54:27.852Z,247.50
2018-09-15T09:55:27.849Z,247.50
2018-09-15T09:56:27.855Z,219.38
2018-09-15T09:57:27.854Z,213.75
2018-09-15T09:58:27.856Z,213.75
2018-09-15T09:59:27.851Z,213.75
2018-09-15T10:00:27.854Z,225.00
2018-09-15T10:01:27.854Z,213.75
2018-09-15T10:02:27.855Z,208.13
2018-09-15T10:03:27.854Z,275.63
2018-09-15T10:04:27.856Z,315.00
2018-09-15T10:05:27.853Z,315.00
2018-09-15T10:06:27.859Z,320.63
2018-09-15T10:07:27.855Z,309.38
2018-09-15T10:08:27.855Z,303.75
2018-09-15T10:09:27.859Z,286.88
2018-09-15T10:10:27.866Z,264.38
2018-09-15T10:11:27.857Z,225.00
2018-09-15T10:12:27.858Z,270.00
2018-09-15T10:13:27.859Z,264.38
2018-09-15T10:14:27.860Z,213.75
2018-09-15T10:15:27.859Z,191.25
2018-09-15T10:16:27.856Z,213.75
2018-09-15T10:17:27.860Z,208.13
2018-09-15T10:18:27.866Z,219.38
2018-09-15T10:19:27.862Z,219.38
2018-09-15T10:20:27.863Z,264.38
2018-09-15T10:21:27.875Z,281.25
2018-09-15T10:22:27.864Z,309.38
2018-09-15T10:23:27.865Z,303.75
2018-09-15T10:24:27.864Z,320.63
2018-09-15T10:25:27.872Z,360.00
2018-09-15T10:26:27.867Z,337.50
2018-09-15T10:27:27.869Z,331.88
2018-09-15T10:28:27.868Z,326.25
2018-09-15T10:29:27.869Z,298.13
2018-09-15T10:30:27.870Z,365.63
2018-09-15T10:31:27.870Z,320.63
2018-09-15T10:32:27.872Z,298.13
2018-09-15T10:33:27.872Z,286.88
2018-09-15T10:34:27.871Z,275.63
2018-09-15T10:35:28.461Z,309.38
2018-09-15T10:36:27.874Z,303.75
2018-09-15T10:37:27.883Z,326.25
2018-09-15T10:38:27.942Z,360.00
2018-09-15T10:39:27.877Z,337.50
2018-09-15T10:40:27.961Z,320.63
2018-09-15T10:41:27.880Z,371.25
2018-09-15T10:42:27.884Z,388.13
2018-09-15T10:43:27.882Z,388.13
2018-09-15T10:44:27.884Z,421.88
2018-09-15T10:45:27.885Z,371.25
2018-09-15T10:46:27.884Z,326.25
2018-09-15T10:47:27.887Z,270.00
2018-09-15T10:48:27.888Z,270.00
2018-09-15T10:49:27.889Z,264.38
2018-09-15T10:50:27.889Z,219.38
2018-09-15T10:51:27.890Z,219.38
2018-09-15T10:52:28.545Z,213.75
2018-09-15T10:53:27.917Z,253.13
2018-09-15T10:54:27.896Z,315.00
2018-09-15T10:55:27.897Z,315.00
2018-09-15T10:56:27.899Z,326.25
2018-09-15T10:57:27.901Z,303.75
2018-09-15T10:58:28.468Z,258.75
2018-09-15T10:59:27.900Z,247.50
2018-09-15T11:00:27.971Z,258.75
2018-09-15T11:01:27.903Z,264.38
2018-09-15T11:02:27.909Z,303.75
2018-09-15T11:03:27.908Z,292.50
2018-09-15T11:04:27.909Z,303.75
2018-09-15T11:05:27.907Z,275.63
2018-09-15T11:06:27.912Z,236.25
2018-09-15T11:07:27.912Z,253.13
2018-09-15T11:08:27.913Z,281.25
2018-09-15T11:09:27.912Z,337.50
2018-09-15T11:10:27.915Z,298.13
2018-09-15T11:11:27.915Z,326.25
2018-09-15T11:12:27.917Z,292.50
2018-09-15T11:13:28.005Z,236.25
2018-09-15T11:14:27.921Z,236.25
2018-09-15T11:15:27.924Z,241.88
2018-09-15T11:16:27.922Z,230.63
2018-09-15T11:17:27.924Z,230.63
2018-09-15T11:18:27.933Z,292.50
2018-09-15T11:19:27.926Z,241.88
2018-09-15T11:20:27.931Z,225.00
2018-09-15T11:21:27.925Z,253.13
2018-09-15T11:22:27.992Z,275.63
2018-09-15T11:23:27.934Z,275.63
2018-09-15T11:24:27.934Z,275.63
2018-09-15T11:25:27.937Z,275.63
2018-09-15T11:26:27.939Z,286.88
2018-09-15T11:27:27.938Z,331.88
2018-09-15T11:28:27.970Z,292.50
2018-09-15T11:29:27.943Z,292.50
2018-09-15T11:30:27.942Z,303.75
2018-09-15T11:31:27.947Z,292.50
2018-09-15T11:32:27.946Z,315.00
2018-09-15T11:33:27.948Z,292.50
2018-09-15T11:34:27.955Z,326.25
2018-09-15T11:35:27.958Z,309.38
2018-09-15T11:36:27.954Z,309.38
2018-09-15T11:37:27.956Z,315.00
2018-09-15T11:38:27.958Z,331.88
2018-09-15T11:39:27.959Z,348.75
2018-09-15T11:40:27.963Z,348.75
2018-09-15T11:41:27.962Z,354.38
2018-09-15T11:42:27.992Z,360.00
2018-09-15T11:43:28.009Z,348.75
2018-09-15T11:44:27.964Z,360.00
2018-09-15T11:45:27.968Z,376.88
2018-09-15T11:46:27.971Z,371.25
2018-09-15T11:47:28.482Z,365.63
2018-09-15T11:48:27.972Z,382.50
2018-09-15T11:49:27.976Z,393.75
2018-09-15T11:50:27.976Z,371.25
2018-09-15T11:51:27.983Z,360.00
2018-09-15T11:52:27.980Z,354.38
2018-09-15T11:53:27.983Z,331.88
2018-09-15T11:54:27.985Z,326.25
2018-09-15T11:55:27.986Z,337.50
2018-09-15T11:56:28.015Z,354.38
2018-09-15T11:57:27.989Z,337.50
2018-09-15T11:58:27.991Z,331.88
2018-09-15T11:59:27.993Z,326.25
2018-09-15T12:00:27.997Z,303.75
2018-09-15T12:01:27.995Z,275.63
2018-09-15T12:02:27.998Z,270.00
2018-09-15T12:03:27.995Z,270.00
2018-09-15T12:04:27.999Z,275.63
2018-09-15T12:05:28.003Z,286.88
2018-09-15T12:06:28.003Z,286.88
2018-09-15T12:07:28.005Z,286.88
2018-09-15T12:08:28.491Z,286.88
2018-09-15T12:09:28.009Z,281.25
2018-09-15T12:10:28.009Z,286.88
2018-09-15T12:11:28.012Z,309.38
2018-09-15T12:12:28.014Z,315.00
2018-09-15T12:13:28.015Z,331.88
2018-09-15T12:14:28.017Z,331.88
2018-09-15T12:15:28.021Z,331.88
2018-09-15T12:16:29.497Z,343.13
2018-09-15T12:17:28.021Z,343.13
2018-09-15T12:18:28.024Z,337.50
2018-09-15T12:19:28.028Z,348.75
2018-09-15T12:20:28.028Z,348.75
2018-09-15T12:21:28.070Z,348.75
2018-09-15T12:22:28.032Z,348.75
2018-09-15T12:23:28.037Z,326.25
2018-09-15T12:24:28.032Z,337.50
2018-09-15T12:25:28.037Z,315.00
2018-09-15T12:26:28.038Z,264.38
2018-09-15T12:27:28.038Z,264.38
2018-09-15T12:28:28.043Z,281.25
2018-09-15T12:29:28.045Z,298.13
2018-09-15T12:30:28.045Z,270.00
2018-09-15T12:31:28.052Z,292.50
2018-09-15T12:32:28.051Z,286.88
2018-09-15T12:33:28.062Z,247.50
2018-09-15T12:34:28.055Z,253.13
2018-09-15T12:35:28.060Z,236.25
2018-09-15T12:36:28.059Z,337.50
2018-09-15T12:37:28.061Z,343.13
2018-09-15T12:38:28.060Z,309.38
2018-09-15T12:39:28.106Z,337.50
2018-09-15T12:40:28.064Z,309.38
2018-09-15T12:41:28.068Z,315.00
2018-09-15T12:42:28.069Z,309.38
2018-09-15T12:43:28.069Z,292.50
2018-09-15T12:44:28.071Z,270.00
2018-09-15T12:45:28.074Z,241.88
2018-09-15T12:46:28.078Z,264.38
2018-09-15T12:47:28.079Z,275.63
2018-09-15T12:48:28.080Z,309.38